Time;durP1;ratioP1;P1;durP2;ratioP2;P2;SDS_P1;SDS_P2;PMS_P1;PMS_P2;Temp;Humidity;BMP_temperature;BMP_pressure;BME280_temperature;BME280_humidity;BME280_pressure;Samples;Min_cycle;Max_cycle;Signal;HPM_P1;HPM_P2
2024/01/23 00:02:08;;;;;;;7.35;1.70;;;;;;;7.76;100.00;101396.66;4980575;28;20132;-86
2024/01/23 00:04:34;;;;;;;8.20;1.27;;;;;;;7.75;100.00;101399.47;4976666;28;20046;-86
2024/01/23 00:07:02;;;;;;;7.38;1.30;;;;;;;7.70;100.00;101406.03;4986704;28;20122;-86
2024/01/23 00:09:27;;;;;;;6.68;1.25;;;;;;;7.65;100.00;101412.75;5001775;28;20030;-85
2024/01/23 00:11:54;;;;;;;6.55;1.42;;;;;;;7.56;100.00;101416.91;4978193;28;20092;-86
2024/01/23 00:14:20;;;;;;;8.77;1.38;;;;;;;7.64;100.00;101409.16;4973634;28;20030;-86
2024/01/23 00:16:48;;;;;;;6.25;1.25;;;;;;;7.74;100.00;101414.94;4977559;28;20030;-86
2024/01/23 00:19:15;;;;;;;9.18;1.40;;;;;;;7.64;100.00;101440.94;4971761;28;20026;-87
2024/01/23 00:21:42;;;;;;;8.65;1.40;;;;;;;7.73;100.00;101427.69;4973964;28;20038;-86
2024/01/23 00:24:07;;;;;;;6.10;1.45;;;;;;;7.65;100.00;101446.31;4980901;28;20093;-86
2024/01/23 00:26:34;;;;;;;5.57;1.13;;;;;;;7.65;100.00;101456.34;4960449;28;20037;-86
2024/01/23 00:29:03;;;;;;;5.70;1.25;;;;;;;7.61;100.00;101450.22;4991854;28;20030;-85
2024/01/23 00:31:28;;;;;;;10.15;1.65;;;;;;;7.68;100.00;101453.44;4976253;28;20427;-86
2024/01/23 00:33:54;;;;;;;7.72;1.40;;;;;;;7.54;100.00;101448.78;4965605;28;20064;-85
2024/01/23 00:36:22;;;;;;;8.05;1.50;;;;;;;7.54;100.00;101454.22;4961800;28;20038;-86
2024/01/23 00:38:48;;;;;;;7.18;1.02;;;;;;;7.62;100.00;101451.94;4996173;28;20156;-86
2024/01/23 00:41:13;;;;;;;6.88;1.15;;;;;;;7.51;100.00;101460.75;4953032;28;20408;-85
2024/01/23 00:43:40;;;;;;;11.23;1.45;;;;;;;7.48;100.00;101460.03;4956788;28;20056;-85
2024/01/23 00:46:05;;;;;;;8.77;1.58;;;;;;;7.55;100.00;101461.44;4986677;28;20057;-91
2024/01/23 00:48:32;;;;;;;14.27;1.42;;;;;;;7.52;100.00;101450.72;4956354;28;20051;-92
2024/01/23 00:50:57;;;;;;;11.57;1.50;;;;;;;7.50;100.00;101460.84;4967998;28;20495;-91
2024/01/23 00:53:23;;;;;;;5.78;1.25;;;;;;;7.59;100.00;101468.50;4963991;28;20026;-91
2024/01/23 00:55:48;;;;;;;9.20;1.38;;;;;;;7.58;100.00;101484.94;4993383;28;20058;-92
2024/01/23 00:58:15;;;;;;;6.25;1.05;;;;;;;7.58;100.00;101480.34;4976919;28;20130;-91
2024/01/23 01:00:44;;;;;;;8.63;1.30;;;;;;;7.50;100.00;101491.66;4989767;28;20096;-91
2024/01/23 01:03:13;;;;;;;10.55;1.85;;;;;;;7.50;100.00;101497.13;4954093;28;20035;-92
2024/01/23 01:05:41;;;;;;;6.30;1.30;;;;;;;7.51;100.00;101506.16;4976232;28;20172;-92
2024/01/23 01:08:07;;;;;;;10.18;1.33;;;;;;;7.50;100.00;101513.47;4985921;28;20157;-90
2024/01/23 01:10:32;;;;;;;9.32;2.00;;;;;;;7.44;100.00;101505.63;5000799;28;20047;-92
2024/01/23 01:12:58;;;;;;;6.97;1.20;;;;;;;7.48;100.00;101517.25;5001856;28;20109;-92
2024/01/23 01:15:23;;;;;;;6.60;1.58;;;;;;;7.42;100.00;101515.75;5004932;28;20022;-92
2024/01/23 01:17:49;;;;;;;4.80;1.17;;;;;;;7.49;100.00;101514.47;4978776;28;20050;-92
2024/01/23 01:20:15;;;;;;;10.27;2.05;;;;;;;7.46;100.00;101530.06;4985485;28;20033;-92
2024/01/23 01:22:41;;;;;;;10.15;1.52;;;;;;;7.47;100.00;101540.88;4973715;28;20480;-91
2024/01/23 01:25:08;;;;;;;11.02;1.98;;;;;;;7.48;100.00;101542.66;4998380;28;20030;-91
2024/01/23 01:27:36;;;;;;;4.50;1.20;;;;;;;7.48;100.00;101544.50;4997920;28;20033;-92
2024/01/23 01:30:04;;;;;;;8.32;1.73;;;;;;;7.42;100.00;101553.88;4989139;28;20232;-91
2024/01/23 01:32:29;;;;;;;8.27;1.30;;;;;;;7.38;100.00;101563.19;4995478;28;20023;-90
2024/01/23 01:34:55;;;;;;;7.22;1.50;;;;;;;7.30;100.00;101560.00;4991585;28;20538;-90
2024/01/23 01:37:21;;;;;;;6.55;1.17;;;;;;;7.28;100.00;101572.81;4944559;28;22132;-91
2024/01/23 01:39:47;;;;;;;6.72;1.60;;;;;;;7.24;100.00;101572.09;4949551;28;20031;-92
2024/01/23 01:42:12;;;;;;;9.63;1.70;;;;;;;7.24;100.00;101574.81;4984262;28;20117;-90
2024/01/23 01:44:38;;;;;;;8.18;1.42;;;;;;;7.30;100.00;101550.00;4977546;28;20037;-92
2024/01/23 01:47:08;;;;;;;7.68;1.63;;;;;;;7.14;100.00;101592.63;4978146;28;21282;-92
2024/01/23 01:49:35;;;;;;;10.52;1.27;;;;;;;7.08;100.00;101588.38;4986750;28;20042;-92
2024/01/23 01:52:02;;;;;;;10.27;1.65;;;;;;;7.05;100.00;101583.13;4998756;28;20468;-91
2024/01/23 01:54:29;;;;;;;8.75;1.50;;;;;;;7.04;100.00;101578.63;4965783;28;20026;-91
2024/01/23 01:56:55;;;;;;;5.75;1.10;;;;;;;7.06;100.00;101583.97;4979357;28;20121;-86
2024/01/23 01:59:20;;;;;;;9.55;1.70;;;;;;;6.93;100.00;101594.63;4975616;28;20151;-87
2024/01/23 02:01:47;;;;;;;8.95;1.35;;;;;;;7.00;100.00;101590.63;4950499;28;20078;-86
2024/01/23 02:04:14;;;;;;;10.65;1.75;;;;;;;6.89;100.00;101610.25;4972246;28;20130;-86
2024/01/23 02:06:39;;;;;;;9.73;1.92;;;;;;;6.87;100.00;101606.72;4960637;28;20026;-86
2024/01/23 02:09:06;;;;;;;10.50;1.25;;;;;;;6.87;100.00;101624.88;4958070;28;20491;-85
2024/01/23 02:11:32;;;;;;;6.63;1.65;;;;;;;6.84;100.00;101634.09;4964868;28;20110;-86
2024/01/23 02:13:58;;;;;;;9.88;1.80;;;;;;;6.79;100.00;101644.34;4944594;28;20082;-86
2024/01/23 02:16:23;;;;;;;10.38;1.85;;;;;;;6.77;100.00;101633.53;4936470;29;20374;-86
2024/01/23 02:18:49;;;;;;;12.23;1.77;;;;;;;6.72;100.00;101641.06;4949450;28;20038;-86
2024/01/23 02:21:15;;;;;;;3.80;1.25;;;;;;;6.70;100.00;101626.63;4969099;28;20035;-86
2024/01/23 02:23:42;;;;;;;10.15;1.48;;;;;;;6.67;100.00;101632.22;4970860;28;20400;-86
2024/01/23 02:26:07;;;;;;;7.32;1.35;;;;;;;6.72;100.00;101634.72;4971152;28;20089;-86
2024/01/23 02:28:35;;;;;;;3.95;0.90;;;;;;;6.69;100.00;101630.31;4966130;28;20031;-86
2024/01/23 02:31:01;;;;;;;5.15;1.20;;;;;;;6.74;100.00;101635.50;4956042;28;20030;-86
2024/01/23 02:33:26;;;;;;;8.40;1.73;;;;;;;6.72;100.00;101648.31;4934553;28;20031;-86
2024/01/23 02:35:52;;;;;;;9.90;2.25;;;;;;;6.71;100.00;101652.88;4967966;28;20062;-86
2024/01/23 02:38:17;;;;;;;10.30;1.70;;;;;;;6.62;100.00;101659.69;4956861;28;20389;-85
2024/01/23 02:40:42;;;;;;;11.77;1.63;;;;;;;6.55;100.00;101666.38;4955086;28;20125;-86
2024/01/23 02:43:08;;;;;;;10.02;1.48;;;;;;;6.51;100.00;101672.03;4973896;28;20034;-86
2024/01/23 02:45:33;;;;;;;6.85;1.42;;;;;;;6.51;100.00;101681.09;4988430;28;20489;-86
2024/01/23 02:47:59;;;;;;;5.82;1.55;;;;;;;6.49;100.00;101666.66;4955798;28;20400;-86
2024/01/23 02:50:26;;;;;;;9.30;1.40;;;;;;;6.55;100.00;101674.53;4936535;28;20117;-86
2024/01/23 02:52:53;;;;;;;8.50;1.42;;;;;;;6.56;100.00;101686.28;4955994;28;20039;-86
2024/01/23 02:55:18;;;;;;;7.40;1.35;;;;;;;6.56;100.00;101705.31;4969016;28;20035;-86
2024/01/23 02:57:47;;;;;;;9.38;1.23;;;;;;;6.49;100.00;101698.44;4954657;28;20037;-86
2024/01/23 03:00:13;;;;;;;10.25;1.25;;;;;;;6.44;100.00;101713.16;4968552;28;20066;-86
2024/01/23 03:02:40;;;;;;;8.70;1.67;;;;;;;6.52;100.00;101698.28;4957616;28;20126;-85
2024/01/23 03:05:05;;;;;;;9.85;1.42;;;;;;;6.55;100.00;101715.34;4982290;28;20121;-86
2024/01/23 03:07:32;;;;;;;6.72;1.50;;;;;;;6.48;100.00;101711.16;4977622;28;20547;-85
2024/01/23 03:09:57;;;;;;;9.50;1.65;;;;;;;6.53;100.00;101730.88;4992883;28;20042;-86
2024/01/23 03:12:23;;;;;;;9.30;1.95;;;;;;;6.46;100.00;101721.25;4961811;28;20039;-84
2024/01/23 03:14:50;;;;;;;12.90;1.55;;;;;;;6.48;100.00;101730.22;4963733;28;20036;-85
2024/01/23 03:17:16;;;;;;;13.57;1.58;;;;;;;6.44;100.00;101732.19;4959948;28;20034;-86
2024/01/23 03:19:43;;;;;;;9.63;1.50;;;;;;;6.43;100.00;101727.69;4985588;28;20129;-85
2024/01/23 03:22:09;;;;;;;8.20;1.10;;;;;;;6.42;100.00;101736.81;4988413;28;20022;-86
2024/01/23 03:24:40;;;;;;;6.03;1.30;;;;;;;6.46;100.00;101750.25;4996900;28;20061;-86
2024/01/23 03:27:06;;;;;;;8.63;1.50;;;;;;;6.34;100.00;101754.44;4973104;28;20034;-86
2024/01/23 03:29:45;;;;;;;9.35;1.65;;;;;;;6.41;100.00;101745.94;4977354;28;20030;-85
2024/01/23 03:32:11;;;;;;;9.25;1.50;;;;;;;6.29;100.00;101749.22;4993138;28;20054;-86
2024/01/23 03:34:38;;;;;;;13.60;1.13;;;;;;;6.39;100.00;101746.94;4964072;28;20676;-85
2024/01/23 03:37:04;;;;;;;10.40;1.45;;;;;;;6.33;100.00;101753.56;4998066;28;20372;-86
2024/01/23 03:39:30;;;;;;;13.20;1.88;;;;;;;6.33;100.00;101758.09;4977393;28;20030;-85
2024/01/23 03:41:56;;;;;;;10.70;2.25;;;;;;;6.35;100.00;101756.22;4993969;28;20033;-85
2024/01/23 03:44:24;;;;;;;8.32;1.58;;;;;;;6.37;100.00;101757.03;4988989;28;20077;-85
2024/01/23 03:46:50;;;;;;;12.48;2.22;;;;;;;6.34;100.00;101771.63;4991474;28;20031;-85
2024/01/23 03:49:16;;;;;;;11.85;1.92;;;;;;;6.33;100.00;101785.31;4960229;28;20088;-86
2024/01/23 03:51:45;;;;;;;10.98;1.70;;;;;;;6.17;100.00;101796.03;4980022;28;20042;-86
2024/01/23 03:54:14;;;;;;;11.93;1.63;;;;;;;6.23;100.00;101801.16;4993026;28;20118;-85
2024/01/23 03:56:39;;;;;;;6.85;1.40;;;;;;;6.27;100.00;101805.53;4991513;28;20109;-86
2024/01/23 03:59:05;;;;;;;8.30;1.48;;;;;;;6.22;100.00;101804.84;4995593;28;20030;-85
2024/01/23 04:01:30;;;;;;;11.13;1.67;;;;;;;6.26;100.00;101809.19;4975336;28;20400;-86
2024/01/23 04:03:57;;;;;;;12.88;1.77;;;;;;;6.28;100.00;101807.31;4960143;28;20046;-86
2024/01/23 04:06:22;;;;;;;7.72;1.70;;;;;;;6.16;100.00;101824.16;4977021;28;20034;-86
2024/01/23 04:08:48;;;;;;;6.13;1.58;;;;;;;6.17;100.00;101824.09;4987459;28;20063;-86
2024/01/23 04:11:13;;;;;;;10.40;1.58;;;;;;;6.11;100.00;101813.50;4962263;28;20040;-86
2024/01/23 04:13:40;;;;;;;9.35;1.52;;;;;;;6.10;100.00;101810.84;4960919;28;20138;-85
2024/01/23 04:16:07;;;;;;;6.53;1.35;;;;;;;6.03;100.00;101813.84;4958881;28;20061;-86
2024/01/23 04:18:33;;;;;;;8.73;1.40;;;;;;;6.11;100.00;101826.22;4975286;28;20046;-86
2024/01/23 04:21:01;;;;;;;9.23;1.58;;;;;;;6.00;100.00;101821.25;4965809;28;20034;-85
2024/01/23 04:23:28;;;;;;;14.27;1.83;;;;;;;5.97;100.00;101822.28;4973780;28;20070;-86
2024/01/23 04:25:53;;;;;;;11.95;1.60;;;;;;;5.94;100.00;101844.13;4977393;28;20120;-85
2024/01/23 04:28:21;;;;;;;11.10;1.67;;;;;;;5.94;100.00;101826.94;4960732;28;20480;-85
2024/01/23 04:30:52;;;;;;;14.20;1.75;;;;;;;5.91;100.00;101837.94;4962673;28;20057;-86
2024/01/23 04:33:18;;;;;;;11.30;1.63;;;;;;;5.85;100.00;101844.50;4977659;28;20041;-87
2024/01/23 04:35:43;;;;;;;15.02;1.85;;;;;;;5.89;100.00;101847.03;4961589;28;20037;-90
2024/01/23 04:38:09;;;;;;;11.48;1.83;;;;;;;5.89;100.00;101846.16;4982040;28;20380;-91
2024/01/23 04:40:34;;;;;;;6.32;1.52;;;;;;;5.92;100.00;101850.56;4976486;28;20130;-91
2024/01/23 04:42:59;;;;;;;13.75;1.95;;;;;;;5.86;100.00;101855.31;4967281;28;20086;-91
2024/01/23 04:45:25;;;;;;;6.93;1.50;;;;;;;5.82;100.00;101861.84;4973438;28;20144;-91
2024/01/23 04:47:51;;;;;;;11.68;1.27;;;;;;;5.82;100.00;101879.97;4970078;28;20023;-92
2024/01/23 04:50:17;;;;;;;11.40;1.63;;;;;;;5.79;100.00;101891.88;4990659;28;20081;-92
2024/01/23 04:52:42;;;;;;;10.50;1.95;;;;;;;5.86;100.00;101901.50;4963176;28;20116;-92
2024/01/23 04:55:08;;;;;;;8.68;1.23;;;;;;;5.75;100.00;101913.78;4965624;28;20034;-92
2024/01/23 04:57:34;;;;;;;17.45;2.58;;;;;;;5.84;100.00;101925.16;4960541;28;20045;-91
2024/01/23 05:00:04;;;;;;;13.55;1.40;;;;;;;5.82;100.00;101931.59;4969212;28;20116;-90
2024/01/23 05:02:31;;;;;;;11.48;2.17;;;;;;;5.82;100.00;101937.03;4970612;28;20067;-91
2024/01/23 05:04:56;;;;;;;11.77;1.77;;;;;;;5.84;100.00;101935.16;4973334;28;20030;-91
2024/01/23 05:07:22;;;;;;;9.98;1.35;;;;;;;5.81;100.00;101932.56;5003428;28;20060;-90
2024/01/23 05:09:48;;;;;;;12.23;1.25;;;;;;;5.73;100.00;101942.88;4987259;28;20030;-91
2024/01/23 05:12:14;;;;;;;13.63;2.10;;;;;;;5.75;100.00;101943.69;4988732;28;20038;-92
2024/01/23 05:14:43;;;;;;;11.82;1.60;;;;;;;5.69;100.00;101953.88;4980988;28;20057;-91
2024/01/23 05:17:08;;;;;;;6.70;1.38;;;;;;;5.69;100.00;101962.00;4978102;28;20030;-91
2024/01/23 05:19:40;;;;;;;11.23;2.10;;;;;;;5.69;100.00;101962.00;4968182;28;20031;-94
2024/01/23 05:22:05;;;;;;;11.55;2.05;;;;;;;5.69;100.00;101978.31;4992281;28;20055;-92
2024/01/23 05:24:31;;;;;;;11.93;1.80;;;;;;;5.66;100.00;101964.84;4972684;28;20041;-90
2024/01/23 05:26:56;;;;;;;12.85;1.73;;;;;;;5.64;100.00;101963.13;4970472;28;20042;-96
2024/01/23 05:29:22;;;;;;;12.77;1.95;;;;;;;5.58;100.00;101960.69;4973167;28;20030;-93
2024/01/23 05:31:47;;;;;;;13.05;1.98;;;;;;;5.58;100.00;101974.28;4967385;28;20058;-94
2024/01/23 05:34:13;;;;;;;8.45;1.73;;;;;;;5.60;100.00;101969.66;4959344;28;20033;-92
2024/01/23 05:36:38;;;;;;;9.23;1.85;;;;;;;5.63;100.00;101981.28;4951673;28;20049;-96
2024/01/23 05:39:06;;;;;;;10.65;2.08;;;;;;;5.62;100.00;101984.94;4981637;28;20034;-96
2024/01/23 05:41:35;;;;;;;8.73;1.50;;;;;;;5.63;100.00;101989.44;4978249;28;20039;-96
2024/01/23 05:44:03;;;;;;;10.38;1.50;;;;;;;5.63;100.00;102002.13;4986888;28;20098;-96
2024/01/23 05:46:29;;;;;;;9.55;1.40;;;;;;;5.54;100.00;102000.66;4994862;28;20042;-91
2024/01/23 05:48:54;;;;;;;11.23;2.17;;;;;;;5.43;100.00;102008.38;4975511;28;20041;-90
2024/01/23 05:51:20;;;;;;;12.95;2.35;;;;;;;5.46;100.00;102027.22;4980189;28;20038;-90
2024/01/23 05:53:45;;;;;;;11.85;1.40;;;;;;;5.44;100.00;102031.84;4966229;28;20027;-90
2024/01/23 05:56:10;;;;;;;13.95;1.50;;;;;;;5.41;100.00;102040.09;4993448;28;20045;-89
2024/01/23 05:58:36;;;;;;;8.93;1.75;;;;;;;5.45;100.00;102044.50;4977225;28;20131;-90
2024/01/23 06:01:01;;;;;;;13.18;1.67;;;;;;;5.39;100.00;102042.00;4969497;28;20042;-90
2024/01/23 06:03:27;;;;;;;7.38;1.30;;;;;;;5.52;100.00;102046.00;4961774;28;20217;-90
2024/01/23 06:05:53;;;;;;;11.88;2.03;;;;;;;5.44;100.00;102051.72;4977446;28;20399;-89
2024/01/23 06:08:18;;;;;;;10.95;1.92;;;;;;;5.42;100.00;102055.47;4975875;28;20076;-90
2024/01/23 06:10:44;;;;;;;10.07;1.48;;;;;;;5.32;100.00;102050.38;4957817;28;20057;-90
2024/01/23 06:13:09;;;;;;;9.52;1.73;;;;;;;5.43;100.00;102063.56;4963882;28;20045;-90
2024/01/23 06:15:36;;;;;;;7.03;1.33;;;;;;;5.39;100.00;102064.59;4955767;28;20097;-90
2024/01/23 06:18:01;;;;;;;9.63;1.63;;;;;;;5.35;100.00;102057.53;4974235;28;20388;-90
2024/01/23 06:20:26;;;;;;;10.43;1.55;;;;;;;5.32;100.00;102052.22;4955914;28;20031;-90
2024/01/23 06:22:52;;;;;;;10.70;1.48;;;;;;;5.35;100.00;102057.53;4973906;28;20034;-90
2024/01/23 06:25:17;;;;;;;15.48;1.98;;;;;;;5.34;100.00;102070.22;4957637;28;20464;-90
2024/01/23 06:27:43;;;;;;;6.60;1.50;;;;;;;5.26;100.00;102071.44;4971461;28;20038;-90
2024/01/23 06:30:11;;;;;;;10.20;1.80;;;;;;;5.25;100.00;102070.56;4973298;28;20031;-89
2024/01/23 06:32:37;;;;;;;10.00;1.60;;;;;;;5.17;100.00;102077.22;4993505;28;20476;-89
2024/01/23 06:35:04;;;;;;;11.20;2.47;;;;;;;5.16;100.00;102092.63;4976629;28;20056;-88
2024/01/23 06:37:29;;;;;;;12.23;2.55;;;;;;;5.17;100.00;102085.38;4967070;28;20027;-88
2024/01/23 06:39:54;;;;;;;12.95;2.10;;;;;;;5.19;100.00;102087.06;4979759;28;20029;-88
2024/01/23 06:42:20;;;;;;;18.60;2.10;;;;;;;5.30;100.00;102100.28;4971255;28;20134;-87
2024/01/23 06:44:45;;;;;;;11.52;1.50;;;;;;;5.17;100.00;102099.81;4976090;28;20045;-88
2024/01/23 06:47:10;;;;;;;13.38;2.30;;;;;;;5.10;100.00;102110.03;4966069;28;20361;-88
2024/01/23 06:49:36;;;;;;;13.60;1.80;;;;;;;5.13;100.00;102111.72;4975761;28;20503;-89
2024/01/23 06:52:02;;;;;;;11.25;1.83;;;;;;;5.28;100.00;102123.84;4970746;28;20041;-89
2024/01/23 06:54:27;;;;;;;11.73;2.00;;;;;;;5.24;100.00;102117.66;5002697;28;20049;-87
2024/01/23 06:56:53;;;;;;;5.90;1.60;;;;;;;5.30;100.00;102119.28;4984806;28;20041;-92
2024/01/23 06:59:19;;;;;;;13.60;1.92;;;;;;;5.23;100.00;102121.34;4997644;28;20034;-92
2024/01/23 07:01:44;;;;;;;8.27;1.80;;;;;;;5.22;100.00;102122.25;4977902;28;20046;-92
2024/01/23 07:04:09;;;;;;;10.50;1.40;;;;;;;5.08;100.00;102135.44;4973313;28;20038;-92
2024/01/23 07:06:37;;;;;;;12.82;1.92;;;;;;;5.00;100.00;102129.41;4980759;28;20038;-93
2024/01/23 07:09:04;;;;;;;7.63;1.70;;;;;;;4.96;100.00;102143.06;4964586;28;20058;-91
2024/01/23 07:11:30;;;;;;;8.82;1.60;;;;;;;4.93;100.00;102140.47;4974322;28;20046;-92
2024/01/23 07:13:56;;;;;;;14.35;2.10;;;;;;;4.86;100.00;102148.88;4971031;28;20019;-91
2024/01/23 07:16:21;;;;;;;13.10;1.77;;;;;;;4.76;100.00;102148.31;4995318;28;20027;-90
2024/01/23 07:18:47;;;;;;;10.70;1.35;;;;;;;4.73;100.00;102153.84;4981292;28;20547;-90
2024/01/23 07:21:12;;;;;;;16.52;2.17;;;;;;;4.71;100.00;102147.59;4982874;28;20118;-91
2024/01/23 07:23:38;;;;;;;7.07;1.63;;;;;;;4.70;100.00;102149.38;4969521;28;20034;-91
2024/01/23 07:26:04;;;;;;;13.20;2.03;;;;;;;4.63;100.00;102155.09;4970725;28;20031;-92
2024/01/23 07:28:29;;;;;;;7.90;1.58;;;;;;;4.60;100.00;102151.53;4975169;28;20033;-90
2024/01/23 07:30:55;;;;;;;9.38;1.60;;;;;;;4.59;100.00;102148.84;4996648;28;20130;-91
2024/01/23 07:33:20;;;;;;;11.45;1.67;;;;;;;4.62;100.00;102148.75;4981136;28;20030;-91
2024/01/23 07:35:47;;;;;;;11.80;1.70;;;;;;;4.56;100.00;102159.84;4985753;28;20030;-91
2024/01/23 07:38:14;;;;;;;11.25;1.88;;;;;;;4.61;100.00;102168.69;4981164;28;20030;-91
2024/01/23 07:40:40;;;;;;;10.10;1.58;;;;;;;4.59;100.00;102173.25;4961074;28;20034;-91
2024/01/23 07:43:06;;;;;;;7.60;1.52;;;;;;;4.58;100.00;102179.66;4983784;28;20113;-91
2024/01/23 07:45:32;;;;;;;12.23;1.88;;;;;;;4.48;100.00;102187.19;4979493;28;20114;-91
2024/01/23 07:47:57;;;;;;;10.15;1.60;;;;;;;4.52;100.00;102188.84;4978784;28;21991;-92
2024/01/23 07:50:27;;;;;;;13.27;1.63;;;;;;;4.47;100.00;102204.38;4975937;28;20069;-91
2024/01/23 07:52:54;;;;;;;13.75;2.10;;;;;;;4.50;100.00;102198.88;4967859;28;20026;-96
2024/01/23 07:57:49;;;;;;;11.82;2.25;;;;;;;4.56;100.00;102198.69;5065676;23;20104;-95
2024/01/23 08:00:18;;;;;;;10.45;1.60;;;;;;;4.50;100.00;102208.84;4991974;28;20046;-91
2024/01/23 08:02:44;;;;;;;11.75;2.83;;;;;;;4.53;100.00;102197.91;4974839;28;20066;-89
2024/01/23 08:05:10;;;;;;;7.82;1.25;;;;;;;4.55;100.00;102202.31;4991043;28;20048;-91
2024/01/23 08:07:35;;;;;;;10.57;1.55;;;;;;;4.54;100.00;102208.69;4982086;28;21605;-88
2024/01/23 08:10:00;;;;;;;12.20;1.63;;;;;;;4.56;100.00;102217.66;4958908;28;20470;-89
2024/01/23 08:12:26;;;;;;;15.00;1.77;;;;;;;4.47;100.00;102220.66;4954029;28;20037;-91
2024/01/23 08:14:51;;;;;;;9.55;1.88;;;;;;;4.51;100.00;102222.34;4958791;28;20033;-94
2024/01/23 08:17:18;;;;;;;9.95;2.15;;;;;;;4.56;100.00;102219.50;4997310;28;20053;-90
2024/01/23 08:19:43;;;;;;;15.80;2.35;;;;;;;4.63;100.00;102231.03;5000616;28;20071;-94
2024/01/23 08:22:09;;;;;;;10.75;1.73;;;;;;;4.66;100.00;102242.69;4973812;28;20494;-90
2024/01/23 08:24:35;;;;;;;13.27;1.63;;;;;;;4.62;100.00;102240.09;4964244;28;20084;-88
2024/01/23 08:27:00;;;;;;;11.05;1.92;;;;;;;4.66;100.00;102250.81;4961472;28;20026;-89
2024/01/23 08:29:26;;;;;;;8.60;1.77;;;;;;;4.66;100.00;102250.81;4965873;28;20407;-90
2024/01/23 08:31:51;;;;;;;9.55;1.92;;;;;;;4.75;100.00;102263.19;4993951;28;20042;-87
2024/01/23 08:34:16;;;;;;;14.10;2.05;;;;;;;4.73;100.00;102259.66;4974565;28;20038;-87
2024/01/23 08:36:42;;;;;;;10.68;1.92;;;;;;;4.75;100.00;102253.22;4958859;28;20057;-85
2024/01/23 08:39:08;;;;;;;14.27;2.03;;;;;;;4.78;100.00;102273.94;4976985;28;20033;-86
2024/01/23 08:41:34;;;;;;;11.82;2.20;;;;;;;4.83;100.00;102265.66;4991689;28;20029;-88
2024/01/23 08:44:00;;;;;;;14.98;1.95;;;;;;;4.85;100.00;102274.63;4965291;28;20033;-90
2024/01/23 08:46:25;;;;;;;10.30;2.00;;;;;;;4.87;100.00;102268.22;4978829;28;20407;-86
2024/01/23 08:48:51;;;;;;;12.73;1.98;;;;;;;4.93;100.00;102268.00;4987554;28;20480;-87
2024/01/23 08:51:21;;;;;;;9.40;1.38;;;;;;;4.97;100.00;102277.84;4974058;28;20162;-88
2024/01/23 08:53:49;;;;;;;14.45;1.75;;;;;;;5.06;100.00;102279.34;4994395;28;20018;-91
2024/01/23 08:56:18;;;;;;;9.52;1.90;;;;;;;5.08;100.00;102293.78;4960897;28;20061;-88
2024/01/23 08:58:45;;;;;;;16.33;2.28;;;;;;;5.12;100.00;102305.44;4976920;28;20049;-90
2024/01/23 09:01:11;;;;;;;10.23;2.05;;;;;;;5.17;100.00;102300.72;4961664;28;20030;-93
2024/01/23 09:03:36;;;;;;;8.60;1.42;;;;;;;5.26;100.00;102291.38;4968884;28;20034;-94
2024/01/23 09:06:04;;;;;;;9.88;1.92;;;;;;;5.27;100.00;102291.34;4963176;28;20255;-91
2024/01/23 09:08:30;;;;;;;10.70;1.65;;;;;;;5.35;100.00;102310.09;4995908;28;20124;-91
2024/01/23 09:10:58;;;;;;;11.45;1.95;;;;;;;5.40;100.00;102301.78;4970305;28;20030;-91
2024/01/23 09:13:24;;;;;;;17.13;1.83;;;;;;;5.40;100.00;102301.78;4948071;28;20030;-92
2024/01/23 09:15:50;;;;;;;10.52;1.90;;;;;;;5.45;100.00;102302.53;4948325;28;20056;-88
2024/01/23 09:18:16;;;;;;;11.27;1.73;;;;;;;5.55;100.00;102295.81;4942522;28;20030;-89
2024/01/23 09:20:43;;;;;;;15.95;2.40;;;;;;;5.67;100.00;102303.56;4943387;28;20507;-87
2024/01/23 09:23:15;;;;;;;11.40;1.55;;;;;;;5.71;100.00;102304.34;4958283;28;20117;-89
2024/01/23 09:25:43;;;;;;;9.52;1.60;;;;;;;5.82;100.00;102293.97;4983507;28;20457;-87
2024/01/23 09:28:10;;;;;;;11.05;1.90;;;;;;;5.74;100.00;102292.44;4943458;28;20042;-88
2024/01/23 09:30:36;;;;;;;12.80;2.08;;;;;;;5.85;100.00;102293.88;4987247;28;20106;-88
2024/01/23 09:33:02;;;;;;;14.13;1.88;;;;;;;5.93;100.00;102287.25;4950765;28;20065;-87
2024/01/23 09:35:37;;;;;;;9.93;2.20;;;;;;;5.98;100.00;102280.72;4994175;28;20034;-89
2024/01/23 09:38:03;;;;;;;14.15;2.33;;;;;;;6.02;100.00;102292.38;4986412;28;20026;-89
2024/01/23 09:40:29;;;;;;;12.40;2.13;;;;;;;6.09;100.00;102299.38;4971216;28;20031;-88
2024/01/23 09:42:57;;;;;;;15.88;2.00;;;;;;;6.13;100.00;102305.56;4985571;28;20050;-89
2024/01/23 09:45:29;;;;;;;12.45;1.95;;;;;;;6.27;100.00;102295.06;4958997;28;20391;-85
2024/01/23 09:47:55;;;;;;;8.60;2.13;;;;;;;6.31;100.00;102302.16;4975990;28;20073;-89
2024/01/23 09:50:26;;;;;;;9.30;1.85;;;;;;;6.42;100.00;102302.63;4959157;28;20807;-89
2024/01/23 09:52:51;;;;;;;12.02;1.73;;;;;;;6.55;100.00;102302.19;4977645;28;20033;-89
2024/01/23 09:55:19;;;;;;;10.23;2.47;;;;;;;6.66;100.00;102316.25;4943650;28;20023;-92
2024/01/23 09:57:45;;;;;;;12.18;1.83;;;;;;;6.77;100.00;102300.38;4958449;28;20134;-88
2024/01/23 10:00:14;;;;;;;15.40;2.15;;;;;;;6.84;100.00;102301.03;4963214;28;20026;-89
2024/01/23 10:02:40;;;;;;;11.77;2.22;;;;;;;6.95;100.00;102306.94;4960896;28;20039;-89
2024/01/23 10:05:17;;;;;;;10.60;1.80;;;;;;;7.09;100.00;102298.19;4973907;28;20027;-90
2024/01/23 10:07:44;;;;;;;7.63;1.85;;;;;;;6.95;100.00;102287.88;4984935;28;20077;-90
2024/01/23 10:10:14;;;;;;;12.15;2.03;;;;;;;7.02;100.00;102293.94;4970043;28;20030;-88
2024/01/23 10:12:44;;;;;;;8.65;1.65;;;;;;;7.17;100.00;102301.47;4999466;28;20029;-89
2024/01/23 10:15:11;;;;;;;9.57;2.20;;;;;;;6.99;100.00;102307.69;4982604;28;20030;-90
2024/01/23 10:17:37;;;;;;;11.52;2.22;;;;;;;7.22;100.00;102295.84;4979671;28;20076;-90
2024/01/23 10:20:03;;;;;;;8.07;1.80;;;;;;;7.42;100.00;102305.03;4967567;28;20097;-91
2024/01/23 10:22:28;;;;;;;10.25;2.20;;;;;;;7.22;100.00;102320.34;4965786;28;20027;-89
2024/01/23 10:24:54;;;;;;;10.55;1.85;;;;;;;7.12;100.00;102308.97;4982466;28;20026;-90
2024/01/23 10:27:19;;;;;;;13.20;2.55;;;;;;;7.34;100.00;102310.78;4952088;28;20125;-91
2024/01/23 10:29:45;;;;;;;11.32;1.77;;;;;;;7.24;100.00;102307.56;4961698;28;20373;-93
2024/01/23 10:32:10;;;;;;;9.15;1.80;;;;;;;7.27;100.00;102306.56;4952384;28;20034;-92
2024/01/23 10:34:35;;;;;;;10.15;2.25;;;;;;;7.45;100.00;102307.63;4966504;28;20101;-91
2024/01/23 10:37:01;;;;;;;13.45;2.00;;;;;;;7.54;100.00;102304.47;4970361;28;20391;-92
2024/01/23 10:39:29;;;;;;;12.82;2.03;;;;;;;7.75;100.00;102308.13;4964695;28;20042;-95
2024/01/23 10:41:58;;;;;;;9.63;1.40;;;;;;;7.57;100.00;102303.47;4955016;28;20037;-94
2024/01/23 10:44:26;;;;;;;11.68;2.10;;;;;;;7.66;100.00;102309.41;4950320;28;20097;-90
2024/01/23 10:46:55;;;;;;;11.32;2.10;;;;;;;7.68;100.00;102315.69;4971560;28;20039;-93
2024/01/23 10:49:22;;;;;;;9.55;1.48;;;;;;;7.86;100.00;102305.81;4980568;28;20053;-90
2024/01/23 10:51:49;;;;;;;11.80;1.90;;;;;;;7.77;100.00;102306.19;4962126;28;20038;-89
2024/01/23 10:54:37;;;;;;;9.35;1.98;;;;;;;7.67;100.00;102310.28;4957444;28;20126;-90
2024/01/23 10:57:08;;;;;;;12.95;2.38;;;;;;;7.44;100.00;102305.81;4978355;28;20154;-90
2024/01/23 10:59:37;;;;;;;10.48;1.90;;;;;;;7.52;100.00;102298.22;4963850;28;20053;-90
2024/01/23 11:02:06;;;;;;;12.38;2.08;;;;;;;7.42;100.00;102296.84;4968623;28;20206;-90
2024/01/23 11:04:32;;;;;;;10.73;1.83;;;;;;;7.31;100.00;102294.56;4974197;28;20053;-86
2024/01/23 11:07:06;;;;;;;14.32;1.77;;;;;;;7.34;100.00;102302.59;4964870;28;20038;-87
2024/01/23 11:09:44;;;;;;;13.35;2.03;;;;;;;7.45;100.00;102303.03;4989915;28;20031;-87
2024/01/23 11:12:36;;;;;;;8.35;1.88;;;;;;;7.61;100.00;102303.28;4993036;28;20373;-87
2024/01/23 11:15:14;;;;;;;11.98;2.30;;;;;;;7.57;100.00;102282.53;4969375;28;20690;-88
2024/01/23 11:17:40;;;;;;;12.98;2.35;;;;;;;7.48;100.00;102282.97;4959543;28;20122;-92
2024/01/23 11:20:09;;;;;;;14.18;2.10;;;;;;;7.49;100.00;102284.72;4955824;28;20035;-90
2024/01/23 11:22:40;;;;;;;8.20;2.05;;;;;;;7.48;100.00;102259.31;4969782;28;20110;-93